sensor_id;sensor_type;location;lat;lon;timestamp;temperature;humidity
51908;DHT22;39320;53.214;6.556;2023-03-19T00:02:25;11.70;99.90
51908;DHT22;39320;53.214;6.556;2023-03-19T00:04:51;11.70;99.90
51908;DHT22;39320;53.214;6.556;2023-03-19T00:07:17;11.70;99.90
51908;DHT22;39320;53.214;6.556;2023-03-19T00:09:43;11.70;99.90
51908;DHT22;39320;53.214;6.556;2023-03-19T00:12:10;11.70;99.90
51908;DHT22;39320;53.214;6.556;2023-03-19T00:14:37;11.70;99.90
51908;DHT22;39320;53.214;6.556;2023-03-19T00:17:03;11.70;99.90
51908;DHT22;39320;53.214;6.556;2023-03-19T00:19:28;11.70;99.90
51908;DHT22;39320;53.214;6.556;2023-03-19T00:21:54;11.70;99.90
51908;DHT22;39320;53.214;6.556;2023-03-19T00:24:21;11.70;99.90
51908;DHT22;39320;53.214;6.556;2023-03-19T00:26:47;11.70;99.90
51908;DHT22;39320;53.214;6.556;2023-03-19T00:29:12;11.60;99.90
51908;DHT22;39320;53.214;6.556;2023-03-19T00:31:39;11.60;99.90
51908;DHT22;39320;53.214;6.556;2023-03-19T00:34:06;11.60;99.90
51908;DHT22;39320;53.214;6.556;2023-03-19T00:36:32;11.60;99.90
51908;DHT22;39320;53.214;6.556;2023-03-19T00:39:05;11.60;99.90
51908;DHT22;39320;53.214;6.556;2023-03-19T00:41:31;11.60;99.90
51908;DHT22;39320;53.214;6.556;2023-03-19T00:43:58;11.60;99.90
51908;DHT22;39320;53.214;6.556;2023-03-19T00:46:24;11.60;99.90
51908;DHT22;39320;53.214;6.556;2023-03-19T00:48:50;11.60;99.90
51908;DHT22;39320;53.214;6.556;2023-03-19T00:51:21;11.60;99.90
51908;DHT22;39320;53.214;6.556;2023-03-19T00:53:47;11.60;99.90
51908;DHT22;39320;53.214;6.556;2023-03-19T00:56:14;11.60;99.90
51908;DHT22;39320;53.214;6.556;2023-03-19T00:58:40;11.60;99.90
51908;DHT22;39320;53.214;6.556;2023-03-19T01:01:10;11.60;99.90
51908;DHT22;39320;53.214;6.556;2023-03-19T01:03:37;11.60;99.90
51908;DHT22;39320;53.214;6.556;2023-03-19T01:06:03;11.60;99.90
51908;DHT22;39320;53.214;6.556;2023-03-19T01:08:29;11.60;99.90
51908;DHT22;39320;53.214;6.556;2023-03-19T01:10:55;11.60;99.90
51908;DHT22;39320;53.214;6.556;2023-03-19T01:13:21;11.60;99.90
51908;DHT22;39320;53.214;6.556;2023-03-19T01:15:51;11.60;99.90
51908;DHT22;39320;53.214;6.556;2023-03-19T01:18:18;11.60;99.90
51908;DHT22;39320;53.214;6.556;2023-03-19T01:20:43;11.60;99.90
51908;DHT22;39320;53.214;6.556;2023-03-19T01:23:09;11.60;99.90
51908;DHT22;39320;53.214;6.556;2023-03-19T01:25:35;11.60;99.90
51908;DHT22;39320;53.214;6.556;2023-03-19T01:28:01;11.60;99.90
51908;DHT22;39320;53.214;6.556;2023-03-19T01:30:27;11.60;99.90
51908;DHT22;39320;53.214;6.556;2023-03-19T01:32:53;11.60;99.90
51908;DHT22;39320;53.214;6.556;2023-03-19T01:35:19;11.60;99.90
51908;DHT22;39320;53.214;6.556;2023-03-19T01:37:45;11.60;99.90
51908;DHT22;39320;53.214;6.556;2023-03-19T01:40:12;11.60;99.90
51908;DHT22;39320;53.214;6.556;2023-03-19T01:42:56;11.60;99.90
51908;DHT22;39320;53.214;6.556;2023-03-19T01:45:33;11.60;99.90
51908;DHT22;39320;53.214;6.556;2023-03-19T01:48:00;11.60;99.90
51908;DHT22;39320;53.214;6.556;2023-03-19T01:50:33;11.60;99.90
51908;DHT22;39320;53.214;6.556;2023-03-19T01:53:02;11.60;99.90
51908;DHT22;39320;53.214;6.556;2023-03-19T01:55:29;11.70;99.90
51908;DHT22;39320;53.214;6.556;2023-03-19T01:57:56;11.40;99.90
51908;DHT22;39320;53.214;6.556;2023-03-19T02:00:22;11.60;99.90
51908;DHT22;39320;53.214;6.556;2023-03-19T02:02:52;11.60;99.90
51908;DHT22;39320;53.214;6.556;2023-03-19T02:05:19;11.60;99.90
51908;DHT22;39320;53.214;6.556;2023-03-19T02:07:52;11.60;99.90
51908;DHT22;39320;53.214;6.556;2023-03-19T02:10:20;11.60;99.90
51908;DHT22;39320;53.214;6.556;2023-03-19T02:12:47;11.60;99.90
51908;DHT22;39320;53.214;6.556;2023-03-19T02:15:13;11.60;99.90
51908;DHT22;39320;53.214;6.556;2023-03-19T02:17:41;11.60;99.90
51908;DHT22;39320;53.214;6.556;2023-03-19T02:20:14;11.60;99.90
51908;DHT22;39320;53.214;6.556;2023-03-19T02:28:10;11.50;99.90
51908;DHT22;39320;53.214;6.556;2023-03-19T02:30:36;11.60;99.90
51908;DHT22;39320;53.214;6.556;2023-03-19T02:33:02;11.60;99.90
51908;DHT22;39320;53.214;6.556;2023-03-19T02:35:31;11.50;99.90
51908;DHT22;39320;53.214;6.556;2023-03-19T02:37:57;11.60;99.90
51908;DHT22;39320;53.214;6.556;2023-03-19T02:40:26;11.50;99.90
51908;DHT22;39320;53.214;6.556;2023-03-19T02:42:53;11.50;99.90
51908;DHT22;39320;53.214;6.556;2023-03-19T02:45:19;11.60;99.90
51908;DHT22;39320;53.214;6.556;2023-03-19T02:47:45;11.50;99.90
51908;DHT22;39320;53.214;6.556;2023-03-19T02:50:11;11.50;99.90
51908;DHT22;39320;53.214;6.556;2023-03-19T02:52:37;11.50;99.90
51908;DHT22;39320;53.214;6.556;2023-03-19T02:55:03;11.50;99.90
51908;DHT22;39320;53.214;6.556;2023-03-19T02:57:29;11.40;99.90
51908;DHT22;39320;53.214;6.556;2023-03-19T02:59:55;11.40;99.90
51908;DHT22;39320;53.214;6.556;2023-03-19T03:02:21;11.40;99.90
51908;DHT22;39320;53.214;6.556;2023-03-19T03:04:47;11.40;99.90
51908;DHT22;39320;53.214;6.556;2023-03-19T03:07:12;11.40;99.90
51908;DHT22;39320;53.214;6.556;2023-03-19T03:09:38;11.40;99.90
51908;DHT22;39320;53.214;6.556;2023-03-19T03:12:04;11.40;99.90
51908;DHT22;39320;53.214;6.556;2023-03-19T03:14:31;11.40;99.90
51908;DHT22;39320;53.214;6.556;2023-03-19T03:16:57;11.40;99.90
51908;DHT22;39320;53.214;6.556;2023-03-19T03:19:23;11.40;99.90
51908;DHT22;39320;53.214;6.556;2023-03-19T03:21:49;11.40;99.90
51908;DHT22;39320;53.214;6.556;2023-03-19T03:24:14;11.40;99.90
51908;DHT22;39320;53.214;6.556;2023-03-19T03:26:40;11.40;99.90
51908;DHT22;39320;53.214;6.556;2023-03-19T03:29:07;11.40;99.90
51908;DHT22;39320;53.214;6.556;2023-03-19T03:31:33;11.40;99.90
51908;DHT22;39320;53.214;6.556;2023-03-19T03:33:59;11.40;99.90
51908;DHT22;39320;53.214;6.556;2023-03-19T03:36:26;11.30;99.90
51908;DHT22;39320;53.214;6.556;2023-03-19T03:38:52;11.30;99.90
51908;DHT22;39320;53.214;6.556;2023-03-19T03:41:18;11.40;99.90
51908;DHT22;39320;53.214;6.556;2023-03-19T03:43:44;11.30;99.90
51908;DHT22;39320;53.214;6.556;2023-03-19T03:46:10;11.30;99.90
51908;DHT22;39320;53.214;6.556;2023-03-19T03:48:36;11.30;99.90
51908;DHT22;39320;53.214;6.556;2023-03-19T03:51:02;11.30;99.90
51908;DHT22;39320;53.214;6.556;2023-03-19T03:53:29;11.30;99.90
51908;DHT22;39320;53.214;6.556;2023-03-19T03:55:54;11.30;99.90
51908;DHT22;39320;53.214;6.556;2023-03-19T03:58:20;11.30;99.90
51908;DHT22;39320;53.214;6.556;2023-03-19T04:00:46;11.30;99.90
51908;DHT22;39320;53.214;6.556;2023-03-19T04:03:13;11.30;99.90
51908;DHT22;39320;53.214;6.556;2023-03-19T04:05:38;11.30;99.90
51908;DHT22;39320;53.214;6.556;2023-03-19T04:08:05;11.30;99.90
51908;DHT22;39320;53.214;6.556;2023-03-19T04:10:32;11.30;99.90
51908;DHT22;39320;53.214;6.556;2023-03-19T04:13:00;11.30;99.90
51908;DHT22;39320;53.214;6.556;2023-03-19T04:15:26;11.20;99.90
51908;DHT22;39320;53.214;6.556;2023-03-19T04:17:51;11.30;99.90
51908;DHT22;39320;53.214;6.556;2023-03-19T04:20:17;11.30;99.90
51908;DHT22;39320;53.214;6.556;2023-03-19T04:22:44;11.30;99.90
51908;DHT22;39320;53.214;6.556;2023-03-19T04:25:10;11.30;99.90
51908;DHT22;39320;53.214;6.556;2023-03-19T04:27:36;11.30;99.90
51908;DHT22;39320;53.214;6.556;2023-03-19T04:30:02;11.30;99.90
51908;DHT22;39320;53.214;6.556;2023-03-19T04:32:28;11.30;99.90
51908;DHT22;39320;53.214;6.556;2023-03-19T04:34:53;11.20;99.90
51908;DHT22;39320;53.214;6.556;2023-03-19T04:37:19;11.20;99.90
51908;DHT22;39320;53.214;6.556;2023-03-19T04:39:45;11.20;99.90
51908;DHT22;39320;53.214;6.556;2023-03-19T04:42:12;11.20;99.90
51908;DHT22;39320;53.214;6.556;2023-03-19T04:44:37;11.20;99.90
51908;DHT22;39320;53.214;6.556;2023-03-19T04:47:03;11.20;99.90
51908;DHT22;39320;53.214;6.556;2023-03-19T04:49:29;11.20;99.90
51908;DHT22;39320;53.214;6.556;2023-03-19T04:51:58;11.20;99.90
51908;DHT22;39320;53.214;6.556;2023-03-19T04:54:24;11.20;99.90
51908;DHT22;39320;53.214;6.556;2023-03-19T04:56:50;11.30;99.90
51908;DHT22;39320;53.214;6.556;2023-03-19T04:59:17;11.20;99.90
51908;DHT22;39320;53.214;6.556;2023-03-19T05:01:43;11.20;99.90
51908;DHT22;39320;53.214;6.556;2023-03-19T05:04:09;11.20;99.90
51908;DHT22;39320;53.214;6.556;2023-03-19T05:06:35;11.30;99.90
51908;DHT22;39320;53.214;6.556;2023-03-19T05:09:03;11.30;99.90
51908;DHT22;39320;53.214;6.556;2023-03-19T05:11:29;11.20;99.90
51908;DHT22;39320;53.214;6.556;2023-03-19T05:13:55;11.20;99.90
51908;DHT22;39320;53.214;6.556;2023-03-19T05:16:20;11.20;99.90
51908;DHT22;39320;53.214;6.556;2023-03-19T05:18:47;11.20;99.90
51908;DHT22;39320;53.214;6.556;2023-03-19T05:21:13;11.20;99.90
51908;DHT22;39320;53.214;6.556;2023-03-19T05:23:41;11.20;99.90
51908;DHT22;39320;53.214;6.556;2023-03-19T05:26:07;11.20;99.90
51908;DHT22;39320;53.214;6.556;2023-03-19T05:28:34;11.10;99.90
51908;DHT22;39320;53.214;6.556;2023-03-19T05:31:00;11.10;99.90
51908;DHT22;39320;53.214;6.556;2023-03-19T05:33:26;11.10;99.90
51908;DHT22;39320;53.214;6.556;2023-03-19T05:35:51;11.10;99.90
51908;DHT22;39320;53.214;6.556;2023-03-19T05:38:18;11.00;99.90
51908;DHT22;39320;53.214;6.556;2023-03-19T05:40:44;11.10;99.90
51908;DHT22;39320;53.214;6.556;2023-03-19T05:43:10;11.00;99.90
51908;DHT22;39320;53.214;6.556;2023-03-19T05:45:37;11.10;99.90
51908;DHT22;39320;53.214;6.556;2023-03-19T05:48:03;11.10;99.90
51908;DHT22;39320;53.214;6.556;2023-03-19T05:50:30;11.10;99.90
51908;DHT22;39320;53.214;6.556;2023-03-19T05:52:57;11.10;99.90
51908;DHT22;39320;53.214;6.556;2023-03-19T05:55:23;11.10;99.90
51908;DHT22;39320;53.214;6.556;2023-03-19T05:57:50;11.10;99.90
51908;DHT22;39320;53.214;6.556;2023-03-19T06:00:16;11.00;99.90
51908;DHT22;39320;53.214;6.556;2023-03-19T06:02:43;11.00;99.90
51908;DHT22;39320;53.214;6.556;2023-03-19T06:05:09;11.00;99.90
51908;DHT22;39320;53.214;6.556;2023-03-19T06:07:35;11.00;99.90
51908;DHT22;39320;53.214;6.556;2023-03-19T06:10:02;11.00;99.90
51908;DHT22;39320;53.214;6.556;2023-03-19T06:12:29;11.00;99.90
51908;DHT22;39320;53.214;6.556;2023-03-19T06:14:55;11.00;99.90
51908;DHT22;39320;53.214;6.556;2023-03-19T06:17:21;10.90;99.90
51908;DHT22;39320;53.214;6.556;2023-03-19T06:19:47;10.90;99.90
51908;DHT22;39320;53.214;6.556;2023-03-19T06:22:13;10.90;99.90
51908;DHT22;39320;53.214;6.556;2023-03-19T06:24:38;10.90;99.90
51908;DHT22;39320;53.214;6.556;2023-03-19T06:27:04;10.90;99.90
51908;DHT22;39320;53.214;6.556;2023-03-19T06:29:30;10.90;99.90
51908;DHT22;39320;53.214;6.556;2023-03-19T06:31:56;10.90;99.90
51908;DHT22;39320;53.214;6.556;2023-03-19T06:34:21;10.90;99.90
51908;DHT22;39320;53.214;6.556;2023-03-19T06:36:47;10.90;99.90
51908;DHT22;39320;53.214;6.556;2023-03-19T06:39:13;10.90;99.90
51908;DHT22;39320;53.214;6.556;2023-03-19T06:41:38;10.90;99.90
51908;DHT22;39320;53.214;6.556;2023-03-19T06:44:04;10.90;99.90
51908;DHT22;39320;53.214;6.556;2023-03-19T06:46:31;10.90;99.90
51908;DHT22;39320;53.214;6.556;2023-03-19T06:48:56;10.90;99.90
51908;DHT22;39320;53.214;6.556;2023-03-19T06:51:22;10.90;99.90
51908;DHT22;39320;53.214;6.556;2023-03-19T06:53:48;10.90;99.90
51908;DHT22;39320;53.214;6.556;2023-03-19T06:56:14;10.90;99.90
51908;DHT22;39320;53.214;6.556;2023-03-19T06:58:40;10.90;99.90
51908;DHT22;39320;53.214;6.556;2023-03-19T07:01:06;10.90;99.90
51908;DHT22;39320;53.214;6.556;2023-03-19T07:03:32;10.90;99.90
51908;DHT22;39320;53.214;6.556;2023-03-19T07:05:58;10.90;99.90
51908;DHT22;39320;53.214;6.556;2023-03-19T07:08:23;10.80;99.90
51908;DHT22;39320;53.214;6.556;2023-03-19T07:11:02;10.90;99.90
51908;DHT22;39320;53.214;6.556;2023-03-19T07:13:28;10.90;99.90
51908;DHT22;39320;53.214;6.556;2023-03-19T07:15:54;10.90;99.90
51908;DHT22;39320;53.214;6.556;2023-03-19T07:18:19;10.90;99.90
51908;DHT22;39320;53.214;6.556;2023-03-19T07:20:45;10.90;99.90
51908;DHT22;39320;53.214;6.556;2023-03-19T07:23:11;10.90;99.90
51908;DHT22;39320;53.214;6.556;2023-03-19T07:25:37;10.90;99.90
51908;DHT22;39320;53.214;6.556;2023-03-19T07:28:03;11.00;99.90
51908;DHT22;39320;53.214;6.556;2023-03-19T07:30:30;11.00;99.90
51908;DHT22;39320;53.214;6.556;2023-03-19T07:32:55;11.00;99.90
51908;DHT22;39320;53.214;6.556;2023-03-19T07:35:21;11.00;99.90
51908;DHT22;39320;53.214;6.556;2023-03-19T07:37:47;11.00;99.90
51908;DHT22;39320;53.214;6.556;2023-03-19T07:40:13;11.10;99.90
51908;DHT22;39320;53.214;6.556;2023-03-19T07:42:38;11.00;99.90
51908;DHT22;39320;53.214;6.556;2023-03-19T07:45:05;11.00;99.90
51908;DHT22;39320;53.214;6.556;2023-03-19T07:47:31;11.10;99.90
51908;DHT22;39320;53.214;6.556;2023-03-19T07:49:57;11.10;99.90
51908;DHT22;39320;53.214;6.556;2023-03-19T07:52:24;11.10;99.90
51908;DHT22;39320;53.214;6.556;2023-03-19T07:54:50;11.10;99.90
51908;DHT22;39320;53.214;6.556;2023-03-19T07:57:17;11.10;99.90
51908;DHT22;39320;53.214;6.556;2023-03-19T07:59:44;11.10;99.90
51908;DHT22;39320;53.214;6.556;2023-03-19T08:02:11;11.10;99.90
51908;DHT22;39320;53.214;6.556;2023-03-19T08:04:37;11.20;99.90
51908;DHT22;39320;53.214;6.556;2023-03-19T08:07:06;11.20;99.90
51908;DHT22;39320;53.214;6.556;2023-03-19T08:09:32;11.20;99.90
51908;DHT22;39320;53.214;6.556;2023-03-19T08:11:59;11.30;99.90
51908;DHT22;39320;53.214;6.556;2023-03-19T08:14:24;11.30;99.90
51908;DHT22;39320;53.214;6.556;2023-03-19T08:16:50;11.20;99.90
51908;DHT22;39320;53.214;6.556;2023-03-19T08:19:16;11.30;99.90
51908;DHT22;39320;53.214;6.556;2023-03-19T08:21:43;11.30;99.90
51908;DHT22;39320;53.214;6.556;2023-03-19T08:24:08;11.30;99.90
51908;DHT22;39320;53.214;6.556;2023-03-19T08:26:34;11.20;99.90
51908;DHT22;39320;53.214;6.556;2023-03-19T08:29:00;11.20;99.90
51908;DHT22;39320;53.214;6.556;2023-03-19T08:31:26;11.40;99.90
51908;DHT22;39320;53.214;6.556;2023-03-19T08:33:51;11.30;99.90
51908;DHT22;39320;53.214;6.556;2023-03-19T08:36:17;11.30;99.90
51908;DHT22;39320;53.214;6.556;2023-03-19T08:38:43;11.40;99.90
51908;DHT22;39320;53.214;6.556;2023-03-19T08:41:09;11.40;99.90
51908;DHT22;39320;53.214;6.556;2023-03-19T08:43:36;11.30;99.90
51908;DHT22;39320;53.214;6.556;2023-03-19T08:46:03;11.30;99.90
51908;DHT22;39320;53.214;6.556;2023-03-19T08:48:29;11.30;99.90
51908;DHT22;39320;53.214;6.556;2023-03-19T08:50:58;11.20;99.90
51908;DHT22;39320;53.214;6.556;2023-03-19T08:53:24;11.20;99.90
51908;DHT22;39320;53.214;6.556;2023-03-19T08:55:54;11.20;99.90
51908;DHT22;39320;53.214;6.556;2023-03-19T08:58:21;11.20;99.90
51908;DHT22;39320;53.214;6.556;2023-03-19T09:00:47;11.20;99.90
51908;DHT22;39320;53.214;6.556;2023-03-19T09:03:14;11.30;99.90
51908;DHT22;39320;53.214;6.556;2023-03-19T09:05:40;11.30;99.90
51908;DHT22;39320;53.214;6.556;2023-03-19T09:08:06;11.30;99.90
51908;DHT22;39320;53.214;6.556;2023-03-19T09:10:33;11.30;99.90
51908;DHT22;39320;53.214;6.556;2023-03-19T09:12:59;11.40;99.90
51908;DHT22;39320;53.214;6.556;2023-03-19T09:15:25;11.40;99.90
51908;DHT22;39320;53.214;6.556;2023-03-19T09:17:51;11.40;99.90
51908;DHT22;39320;53.214;6.556;2023-03-19T09:20:17;11.50;99.90
51908;DHT22;39320;53.214;6.556;2023-03-19T09:22:44;11.50;99.90
51908;DHT22;39320;53.214;6.556;2023-03-19T09:25:10;11.50;99.90
51908;DHT22;39320;53.214;6.556;2023-03-19T09:27:36;11.50;99.90
51908;DHT22;39320;53.214;6.556;2023-03-19T09:30:02;11.50;99.90
51908;DHT22;39320;53.214;6.556;2023-03-19T09:32:28;11.50;99.90
51908;DHT22;39320;53.214;6.556;2023-03-19T09:34:55;11.50;99.90
51908;DHT22;39320;53.214;6.556;2023-03-19T09:37:20;11.60;99.90
51908;DHT22;39320;53.214;6.556;2023-03-19T09:39:46;11.40;99.90
51908;DHT22;39320;53.214;6.556;2023-03-19T09:45:13;11.40;99.90
51908;DHT22;39320;53.214;6.556;2023-03-19T09:47:39;11.40;99.90
51908;DHT22;39320;53.214;6.556;2023-03-19T09:50:20;11.40;99.90
51908;DHT22;39320;53.214;6.556;2023-03-19T09:52:55;11.50;99.90
51908;DHT22;39320;53.214;6.556;2023-03-19T09:57:49;11.50;99.90
51908;DHT22;39320;53.214;6.556;2023-03-19T10:00:19;11.50;99.90
51908;DHT22;39320;53.214;6.556;2023-03-19T10:02:45;11.50;99.90
51908;DHT22;39320;53.214;6.556;2023-03-19T10:08:20;11.60;99.90
51908;DHT22;39320;53.214;6.556;2023-03-19T10:14:50;11.50;99.90
51908;DHT22;39320;53.214;6.556;2023-03-19T10:16:53;11.60;99.90
51908;DHT22;39320;53.214;6.556;2023-03-19T10:19:27;11.50;99.90
51908;DHT22;39320;53.214;6.556;2023-03-19T10:22:01;11.50;99.90
51908;DHT22;39320;53.214;6.556;2023-03-19T10:24:33;11.50;99.90
51908;DHT22;39320;53.214;6.556;2023-03-19T10:27:14;11.40;99.90
51908;DHT22;39320;53.214;6.556;2023-03-19T10:29:40;11.50;99.90
51908;DHT22;39320;53.214;6.556;2023-03-19T10:32:31;11.60;99.90
51908;DHT22;39320;53.214;6.556;2023-03-19T10:35:15;11.50;99.90
51908;DHT22;39320;53.214;6.556;2023-03-19T10:37:41;11.50;99.90
51908;DHT22;39320;53.214;6.556;2023-03-19T10:40:37;11.60;99.90
51908;DHT22;39320;53.214;6.556;2023-03-19T10:43:17;11.60;99.90
51908;DHT22;39320;53.214;6.556;2023-03-19T10:45:46;11.60;99.90
51908;DHT22;39320;53.214;6.556;2023-03-19T10:48:16;11.60;99.90
51908;DHT22;39320;53.214;6.556;2023-03-19T10:50:53;11.60;99.90
51908;DHT22;39320;53.214;6.556;2023-03-19T10:53:32;11.50;99.90
51908;DHT22;39320;53.214;6.556;2023-03-19T10:56:03;11.50;99.90
51908;DHT22;39320;53.214;6.556;2023-03-19T10:58:31;11.50;99.90
51908;DHT22;39320;53.214;6.556;2023-03-19T11:01:07;11.40;99.90
51908;DHT22;39320;53.214;6.556;2023-03-19T11:03:36;11.40;99.90
51908;DHT22;39320;53.214;6.556;2023-03-19T11:06:17;11.40;99.90
51908;DHT22;39320;53.214;6.556;2023-03-19T11:08:57;11.40;99.90
51908;DHT22;39320;53.214;6.556;2023-03-19T11:11:35;11.40;99.90
51908;DHT22;39320;53.214;6.556;2023-03-19T11:14:11;11.40;99.90
51908;DHT22;39320;53.214;6.556;2023-03-19T11:19:28;11.40;99.90
51908;DHT22;39320;53.214;6.556;2023-03-19T11:22:13;11.40;99.90
51908;DHT22;39320;53.214;6.556;2023-03-19T11:24:41;11.30;99.90
51908;DHT22;39320;53.214;6.556;2023-03-19T11:27:08;11.20;99.90
51908;DHT22;39320;53.214;6.556;2023-03-19T11:29:42;11.20;99.90
51908;DHT22;39320;53.214;6.556;2023-03-19T11:32:32;11.20;99.90
51908;DHT22;39320;53.214;6.556;2023-03-19T11:35:36;11.20;99.90
51908;DHT22;39320;53.214;6.556;2023-03-19T11:38:01;11.20;99.90
51908;DHT22;39320;53.214;6.556;2023-03-19T11:40:30;11.30;99.90
51908;DHT22;39320;53.214;6.556;2023-03-19T11:43:17;11.30;99.90
51908;DHT22;39320;53.214;6.556;2023-03-19T11:46:12;11.30;99.90
51908;DHT22;39320;53.214;6.556;2023-03-19T11:51:52;11.40;99.90
51908;DHT22;39320;53.214;6.556;2023-03-19T11:54:56;11.40;99.90
51908;DHT22;39320;53.214;6.556;2023-03-19T12:03:08;11.30;99.90
51908;DHT22;39320;53.214;6.556;2023-03-19T12:08:23;11.20;99.90
51908;DHT22;39320;53.214;6.556;2023-03-19T12:26:56;11.40;99.90
51908;DHT22;39320;53.214;6.556;2023-03-19T12:34:54;11.20;99.90
51908;DHT22;39320;53.214;6.556;2023-03-19T12:40:44;11.20;99.90
51908;DHT22;39320;53.214;6.556;2023-03-19T12:46:18;11.10;99.90
51908;DHT22;39320;53.214;6.556;2023-03-19T12:49:01;11.10;99.90
51908;DHT22;39320;53.214;6.556;2023-03-19T12:51:31;11.10;99.90
51908;DHT22;39320;53.214;6.556;2023-03-19T12:54:05;11.10;99.90
51908;DHT22;39320;53.214;6.556;2023-03-19T12:56:45;11.10;99.90
51908;DHT22;39320;53.214;6.556;2023-03-19T13:02:28;11.10;99.90
51908;DHT22;39320;53.214;6.556;2023-03-19T13:04:59;11.10;99.90
51908;DHT22;39320;53.214;6.556;2023-03-19T13:10:22;11.20;99.90
51908;DHT22;39320;53.214;6.556;2023-03-19T13:12:49;11.10;99.90
51908;DHT22;39320;53.214;6.556;2023-03-19T13:23:24;11.10;99.90
51908;DHT22;39320;53.214;6.556;2023-03-19T13:25:51;11.10;99.90
51908;DHT22;39320;53.214;6.556;2023-03-19T13:28:30;11.10;99.90
51908;DHT22;39320;53.214;6.556;2023-03-19T13:31:16;11.10;99.90
51908;DHT22;39320;53.214;6.556;2023-03-19T13:34:00;11.10;99.90
51908;DHT22;39320;53.214;6.556;2023-03-19T13:36:28;11.00;99.90
51908;DHT22;39320;53.214;6.556;2023-03-19T13:38:57;10.90;99.90
51908;DHT22;39320;53.214;6.556;2023-03-19T13:44:38;11.00;99.90
51908;DHT22;39320;53.214;6.556;2023-03-19T13:55:51;10.90;99.90
51908;DHT22;39320;53.214;6.556;2023-03-19T13:58:20;10.80;99.90
51908;DHT22;39320;53.214;6.556;2023-03-19T14:03:53;10.90;99.90
51908;DHT22;39320;53.214;6.556;2023-03-19T14:06:57;10.80;99.90
51908;DHT22;39320;53.214;6.556;2023-03-19T14:09:42;10.80;99.90
51908;DHT22;39320;53.214;6.556;2023-03-19T14:15:28;10.80;99.90
51908;DHT22;39320;53.214;6.556;2023-03-19T14:28:34;10.70;99.90
51908;DHT22;39320;53.214;6.556;2023-03-19T14:31:02;10.70;99.90
51908;DHT22;39320;53.214;6.556;2023-03-19T14:33:44;10.20;99.90
51908;DHT22;39320;53.214;6.556;2023-03-19T14:36:16;10.80;99.90
51908;DHT22;39320;53.214;6.556;2023-03-19T14:39:02;10.80;99.90
51908;DHT22;39320;53.214;6.556;2023-03-19T14:41:39;10.80;99.90
51908;DHT22;39320;53.214;6.556;2023-03-19T14:47:19;10.70;99.90
51908;DHT22;39320;53.214;6.556;2023-03-19T14:52:35;10.70;99.90
51908;DHT22;39320;53.214;6.556;2023-03-19T14:55:09;10.70;99.90
51908;DHT22;39320;53.214;6.556;2023-03-19T14:57:35;10.70;99.90
51908;DHT22;39320;53.214;6.556;2023-03-19T15:00:03;10.70;99.90
51908;DHT22;39320;53.214;6.556;2023-03-19T15:02:48;10.70;99.90
51908;DHT22;39320;53.214;6.556;2023-03-19T15:05:29;10.70;99.90
51908;DHT22;39320;53.214;6.556;2023-03-19T15:08:03;10.70;99.90
51908;DHT22;39320;53.214;6.556;2023-03-19T15:10:38;10.80;99.90
51908;DHT22;39320;53.214;6.556;2023-03-19T15:16:30;10.80;99.90
51908;DHT22;39320;53.214;6.556;2023-03-19T15:18:58;10.80;99.90
51908;DHT22;39320;53.214;6.556;2023-03-19T15:21:24;10.80;99.90
51908;DHT22;39320;53.214;6.556;2023-03-19T15:23:50;10.80;99.90
51908;DHT22;39320;53.214;6.556;2023-03-19T15:26:29;10.90;99.90
51908;DHT22;39320;53.214;6.556;2023-03-19T15:28:55;10.90;99.90
51908;DHT22;39320;53.214;6.556;2023-03-19T15:31:22;10.90;99.90
51908;DHT22;39320;53.214;6.556;2023-03-19T15:33:48;10.90;99.90
51908;DHT22;39320;53.214;6.556;2023-03-19T15:36:25;10.90;99.90
51908;DHT22;39320;53.214;6.556;2023-03-19T15:39:06;10.90;99.90
51908;DHT22;39320;53.214;6.556;2023-03-19T15:41:41;10.80;99.90
51908;DHT22;39320;53.214;6.556;2023-03-19T15:44:11;10.80;99.90
51908;DHT22;39320;53.214;6.556;2023-03-19T15:46:39;10.80;99.90
51908;DHT22;39320;53.214;6.556;2023-03-19T15:51:35;10.80;99.90
51908;DHT22;39320;53.214;6.556;2023-03-19T15:54:02;10.80;99.90
51908;DHT22;39320;53.214;6.556;2023-03-19T15:56:29;10.90;99.90
51908;DHT22;39320;53.214;6.556;2023-03-19T15:58:57;10.80;99.90
51908;DHT22;39320;53.214;6.556;2023-03-19T16:01:24;10.80;99.90
51908;DHT22;39320;53.214;6.556;2023-03-19T16:03:57;10.80;99.90
51908;DHT22;39320;53.214;6.556;2023-03-19T16:06:27;10.80;99.90
51908;DHT22;39320;53.214;6.556;2023-03-19T16:08:55;10.80;99.90
51908;DHT22;39320;53.214;6.556;2023-03-19T16:11:37;10.80;99.90
51908;DHT22;39320;53.214;6.556;2023-03-19T16:14:25;10.90;99.90
51908;DHT22;39320;53.214;6.556;2023-03-19T16:17:02;10.90;99.90
51908;DHT22;39320;53.214;6.556;2023-03-19T16:19:34;10.90;99.90
51908;DHT22;39320;53.214;6.556;2023-03-19T16:22:23;10.90;99.90
51908;DHT22;39320;53.214;6.556;2023-03-19T16:24:48;10.80;99.90
51908;DHT22;39320;53.214;6.556;2023-03-19T16:27:38;10.80;99.90
51908;DHT22;39320;53.214;6.556;2023-03-19T16:30:20;10.80;99.90
51908;DHT22;39320;53.214;6.556;2023-03-19T16:33:05;10.80;99.90
51908;DHT22;39320;53.214;6.556;2023-03-19T16:35:32;10.80;99.90
51908;DHT22;39320;53.214;6.556;2023-03-19T16:38:17;10.80;99.90
51908;DHT22;39320;53.214;6.556;2023-03-19T16:41:15;10.80;99.90
51908;DHT22;39320;53.214;6.556;2023-03-19T16:43:45;10.80;99.90
51908;DHT22;39320;53.214;6.556;2023-03-19T16:46:12;10.80;99.90
51908;DHT22;39320;53.214;6.556;2023-03-19T16:48:41;10.80;99.90
51908;DHT22;39320;53.214;6.556;2023-03-19T16:51:13;10.90;99.90
51908;DHT22;39320;53.214;6.556;2023-03-19T16:53:39;10.90;99.90
51908;DHT22;39320;53.214;6.556;2023-03-19T16:56:05;10.90;99.90
51908;DHT22;39320;53.214;6.556;2023-03-19T16:58:32;10.80;99.90
51908;DHT22;39320;53.214;6.556;2023-03-19T17:01:15;10.80;99.90
51908;DHT22;39320;53.214;6.556;2023-03-19T17:03:41;10.80;99.90
51908;DHT22;39320;53.214;6.556;2023-03-19T17:06:10;10.90;99.90
51908;DHT22;39320;53.214;6.556;2023-03-19T17:08:36;10.80;99.90
51908;DHT22;39320;53.214;6.556;2023-03-19T17:11:02;10.80;99.90
51908;DHT22;39320;53.214;6.556;2023-03-19T17:13:29;10.80;99.90
51908;DHT22;39320;53.214;6.556;2023-03-19T17:16:02;10.80;99.90
51908;DHT22;39320;53.214;6.556;2023-03-19T17:18:33;10.80;99.90
51908;DHT22;39320;53.214;6.556;2023-03-19T17:21:17;10.80;99.90
51908;DHT22;39320;53.214;6.556;2023-03-19T17:23:45;10.80;99.90
51908;DHT22;39320;53.214;6.556;2023-03-19T17:26:16;10.70;99.90
51908;DHT22;39320;53.214;6.556;2023-03-19T17:28:43;10.70;99.90
51908;DHT22;39320;53.214;6.556;2023-03-19T17:31:26;10.70;99.90
51908;DHT22;39320;53.214;6.556;2023-03-19T17:34:08;10.60;99.90
51908;DHT22;39320;53.214;6.556;2023-03-19T17:36:34;11.00;99.90
51908;DHT22;39320;53.214;6.556;2023-03-19T17:39:01;10.50;99.90